Wynnburg, Tennessee
Current Conditions -  °F | °C
As of 4:35 AM on Friday 24 Oct 2014 (Local Time) from KDYR Reporting Station
Clear Clear  
Wind Chill: 43°   Ceiling: Unl
Heat Index: 43°   Visibility: 8mi
Dew Point: 34°   Wind: 0mph
Humidity: 70%   Direction: NA
Pressure: 30.15"   Gusts: NA
Location:  36.33°N, 89.47°W
Report Text: KDYR 240935Z 00000KT 8SM CLR 06/01 A3015 RMK AO1
Loading
Personal Weather Stations






























Interactive Weather Map
Tropical Storm Tracking
New forecast layout! Learn more

10-Day Weather Forecast

Advertisements
Track Severe Weather on mobile